sensor_id;sensor_type;location;lat;lon;timestamp;noise_LAeq;noise_LA_min;noise_LA_max;noise_LA01;noise_LA95
38366;Laerm;943;51.568;6.998;2023-06-04T00:00:49;40.67;34.89;58.86;;
38366;Laerm;943;51.568;6.998;2023-06-04T00:03:17;44.36;36.22;75.90;;
38366;Laerm;943;51.568;6.998;2023-06-04T00:05:44;39.98;35.67;44.89;;
38366;Laerm;943;51.568;6.998;2023-06-04T00:08:13;39.81;33.95;46.75;;
38366;Laerm;943;51.568;6.998;2023-06-04T00:10:40;41.23;36.90;57.04;;
38366;Laerm;943;51.568;6.998;2023-06-04T00:13:08;39.27;34.69;48.56;;
38366;Laerm;943;51.568;6.998;2023-06-04T00:15:36;39.64;34.03;47.48;;
38366;Laerm;943;51.568;6.998;2023-06-04T00:18:03;40.98;36.73;48.25;;
38366;Laerm;943;51.568;6.998;2023-06-04T00:20:31;42.08;37.50;47.89;;
38366;Laerm;943;51.568;6.998;2023-06-04T00:22:59;39.52;35.05;50.07;;
38366;Laerm;943;51.568;6.998;2023-06-04T00:25:27;41.12;35.77;54.22;;
38366;Laerm;943;51.568;6.998;2023-06-04T00:27:54;39.52;34.17;56.93;;
38366;Laerm;943;51.568;6.998;2023-06-04T00:30:22;40.49;36.01;51.95;;
38366;Laerm;943;51.568;6.998;2023-06-04T00:32:50;42.55;37.91;59.07;;
38366;Laerm;943;51.568;6.998;2023-06-04T00:35:18;41.53;35.98;60.45;;
38366;Laerm;943;51.568;6.998;2023-06-04T00:37:46;56.50;37.04;80.87;;
38366;Laerm;943;51.568;6.998;2023-06-04T00:40:14;42.60;35.87;63.50;;
38366;Laerm;943;51.568;6.998;2023-06-04T00:42:42;40.31;35.65;55.44;;
38366;Laerm;943;51.568;6.998;2023-06-04T00:45:12;40.31;34.98;55.67;;
38366;Laerm;943;51.568;6.998;2023-06-04T00:47:43;40.09;35.32;58.30;;
38366;Laerm;943;51.568;6.998;2023-06-04T00:50:11;40.20;35.23;60.86;;
38366;Laerm;943;51.568;6.998;2023-06-04T00:52:40;40.99;35.99;51.24;;
38366;Laerm;943;51.568;6.998;2023-06-04T00:55:09;40.00;36.08;47.32;;
38366;Laerm;943;51.568;6.998;2023-06-04T00:57:38;39.50;35.46;46.94;;
38366;Laerm;943;51.568;6.998;2023-06-04T01:00:07;39.95;35.37;48.66;;
38366;Laerm;943;51.568;6.998;2023-06-04T01:02:40;42.91;37.71;64.09;;
38366;Laerm;943;51.568;6.998;2023-06-04T01:05:29;41.91;33.85;71.23;;
38366;Laerm;943;51.568;6.998;2023-06-04T01:08:02;37.07;33.59;41.92;;
38366;Laerm;943;51.568;6.998;2023-06-04T01:10:31;39.62;35.13;49.37;;
38366;Laerm;943;51.568;6.998;2023-06-04T01:12:58;40.35;35.99;46.75;;
38366;Laerm;943;51.568;6.998;2023-06-04T01:15:27;45.89;35.72;76.10;;
38366;Laerm;943;51.568;6.998;2023-06-04T01:18:04;39.80;34.41;52.28;;
38366;Laerm;943;51.568;6.998;2023-06-04T01:20:48;43.47;35.09;56.45;;
38366;Laerm;943;51.568;6.998;2023-06-04T01:23:46;41.50;34.44;70.30;;
38366;Laerm;943;51.568;6.998;2023-06-04T01:26:15;39.52;34.71;56.80;;
38366;Laerm;943;51.568;6.998;2023-06-04T01:28:44;39.16;34.25;54.88;;
38366;Laerm;943;51.568;6.998;2023-06-04T01:31:15;39.97;35.21;48.59;;
38366;Laerm;943;51.568;6.998;2023-06-04T01:33:43;41.52;35.55;63.03;;
38366;Laerm;943;51.568;6.998;2023-06-04T01:36:12;40.57;36.04;63.23;;
38366;Laerm;943;51.568;6.998;2023-06-04T01:38:39;38.69;33.52;46.03;;
38366;Laerm;943;51.568;6.998;2023-06-04T01:41:07;38.94;34.18;48.23;;
38366;Laerm;943;51.568;6.998;2023-06-04T01:43:35;38.94;35.14;50.82;;
38366;Laerm;943;51.568;6.998;2023-06-04T01:46:03;38.53;34.62;45.38;;
38366;Laerm;943;51.568;6.998;2023-06-04T01:48:32;38.64;34.92;44.89;;
38366;Laerm;943;51.568;6.998;2023-06-04T01:51:01;39.04;35.29;46.49;;
38366;Laerm;943;51.568;6.998;2023-06-04T01:53:30;45.35;34.99;58.45;;
38366;Laerm;943;51.568;6.998;2023-06-04T01:55:58;38.95;34.75;47.60;;
38366;Laerm;943;51.568;6.998;2023-06-04T01:58:26;38.41;33.91;45.39;;
38366;Laerm;943;51.568;6.998;2023-06-04T02:00:56;40.03;34.65;60.45;;
38366;Laerm;943;51.568;6.998;2023-06-04T02:03:28;46.16;33.82;68.23;;
38366;Laerm;943;51.568;6.998;2023-06-04T02:06:00;53.62;35.17;71.00;;
38366;Laerm;943;51.568;6.998;2023-06-04T02:08:27;56.31;33.31;71.82;;
38366;Laerm;943;51.568;6.998;2023-06-04T02:10:57;58.11;34.80;74.10;;
38366;Laerm;943;51.568;6.998;2023-06-04T02:13:25;59.16;34.90;75.25;;
38366;Laerm;943;51.568;6.998;2023-06-04T02:15:53;58.89;35.20;74.30;;
38366;Laerm;943;51.568;6.998;2023-06-04T02:18:21;59.00;33.37;75.35;;
38366;Laerm;943;51.568;6.998;2023-06-04T02:20:51;59.66;35.11;75.17;;
38366;Laerm;943;51.568;6.998;2023-06-04T02:23:20;60.17;37.49;74.67;;
38366;Laerm;943;51.568;6.998;2023-06-04T02:25:48;59.45;36.28;75.29;;
38366;Laerm;943;51.568;6.998;2023-06-04T02:28:17;53.90;37.96;72.84;;
38366;Laerm;943;51.568;6.998;2023-06-04T02:30:45;50.30;36.01;65.46;;
38366;Laerm;943;51.568;6.998;2023-06-04T02:33:15;50.32;37.47;65.09;;
38366;Laerm;943;51.568;6.998;2023-06-04T02:35:43;55.53;36.93;72.00;;
38366;Laerm;943;51.568;6.998;2023-06-04T02:38:12;56.36;36.32;71.40;;
38366;Laerm;943;51.568;6.998;2023-06-04T02:40:43;56.45;36.49;73.43;;
38366;Laerm;943;51.568;6.998;2023-06-04T02:43:11;56.61;37.40;71.86;;
38366;Laerm;943;51.568;6.998;2023-06-04T02:45:39;52.09;37.73;65.64;;
38366;Laerm;943;51.568;6.998;2023-06-04T02:48:07;55.23;37.58;72.36;;
38366;Laerm;943;51.568;6.998;2023-06-04T02:50:35;56.41;38.36;71.40;;
38366;Laerm;943;51.568;6.998;2023-06-04T02:53:02;56.68;37.41;74.07;;
38366;Laerm;943;51.568;6.998;2023-06-04T02:55:30;52.73;37.17;65.23;;
38366;Laerm;943;51.568;6.998;2023-06-04T02:57:58;53.59;38.60;66.68;;
38366;Laerm;943;51.568;6.998;2023-06-04T03:00:26;53.39;38.55;67.11;;
38366;Laerm;943;51.568;6.998;2023-06-04T03:02:55;55.94;36.36;69.81;;
38366;Laerm;943;51.568;6.998;2023-06-04T03:05:30;54.39;36.42;69.35;;
38366;Laerm;943;51.568;6.998;2023-06-04T03:08:02;54.79;36.34;68.81;;
38366;Laerm;943;51.568;6.998;2023-06-04T03:10:31;58.13;36.71;78.60;;
38366;Laerm;943;51.568;6.998;2023-06-04T03:12:59;54.92;36.75;78.12;;
38366;Laerm;943;51.568;6.998;2023-06-04T03:15:28;52.93;36.54;77.36;;
38366;Laerm;943;51.568;6.998;2023-06-04T03:17:55;50.50;37.86;66.88;;
38366;Laerm;943;51.568;6.998;2023-06-04T03:20:24;53.26;38.15;69.39;;
38366;Laerm;943;51.568;6.998;2023-06-04T03:22:52;51.82;37.44;66.06;;
38366;Laerm;943;51.568;6.998;2023-06-04T03:25:20;52.10;36.35;68.76;;
38366;Laerm;943;51.568;6.998;2023-06-04T03:27:48;61.67;37.41;80.13;;
38366;Laerm;943;51.568;6.998;2023-06-04T03:30:16;56.97;37.53;78.10;;
38366;Laerm;943;51.568;6.998;2023-06-04T03:32:54;52.70;36.81;70.97;;
38366;Laerm;943;51.568;6.998;2023-06-04T03:35:23;54.62;37.36;72.27;;
38366;Laerm;943;51.568;6.998;2023-06-04T03:37:51;53.28;37.88;76.20;;
38366;Laerm;943;51.568;6.998;2023-06-04T03:40:19;51.28;37.10;78.68;;
38366;Laerm;943;51.568;6.998;2023-06-04T03:42:48;49.92;36.96;65.63;;
38366;Laerm;943;51.568;6.998;2023-06-04T03:45:17;45.61;36.34;65.18;;
38366;Laerm;943;51.568;6.998;2023-06-04T03:47:46;57.96;35.83;79.14;;
38366;Laerm;943;51.568;6.998;2023-06-04T03:50:14;58.49;36.01;78.87;;
38366;Laerm;943;51.568;6.998;2023-06-04T03:52:42;47.97;37.04;67.78;;
38366;Laerm;943;51.568;6.998;2023-06-04T03:55:10;43.51;36.15;67.29;;
38366;Laerm;943;51.568;6.998;2023-06-04T03:57:40;41.93;36.75;58.16;;
38366;Laerm;943;51.568;6.998;2023-06-04T04:00:10;44.98;35.71;69.55;;
38366;Laerm;943;51.568;6.998;2023-06-04T04:02:42;42.29;36.08;66.21;;
38366;Laerm;943;51.568;6.998;2023-06-04T04:05:19;41.46;35.58;64.51;;
38366;Laerm;943;51.568;6.998;2023-06-04T04:07:48;44.57;36.99;63.58;;
38366;Laerm;943;51.568;6.998;2023-06-04T04:10:20;41.53;35.59;60.86;;
38366;Laerm;943;51.568;6.998;2023-06-04T04:12:47;41.77;36.16;58.95;;
38366;Laerm;943;51.568;6.998;2023-06-04T04:15:18;46.37;36.84;66.92;;
38366;Laerm;943;51.568;6.998;2023-06-04T04:17:46;48.59;37.57;67.64;;
38366;Laerm;943;51.568;6.998;2023-06-04T04:20:14;44.32;37.23;61.52;;
38366;Laerm;943;51.568;6.998;2023-06-04T04:22:49;43.61;37.41;57.99;;
38366;Laerm;943;51.568;6.998;2023-06-04T04:25:19;43.86;36.39;65.67;;
38366;Laerm;943;51.568;6.998;2023-06-04T04:27:47;47.45;35.16;68.08;;
38366;Laerm;943;51.568;6.998;2023-06-04T04:30:16;49.56;36.03;69.29;;
38366;Laerm;943;51.568;6.998;2023-06-04T04:32:48;49.95;36.05;70.84;;
38366;Laerm;943;51.568;6.998;2023-06-04T04:35:23;48.70;36.35;69.14;;
38366;Laerm;943;51.568;6.998;2023-06-04T04:37:55;49.53;36.41;72.53;;
38366;Laerm;943;51.568;6.998;2023-06-04T04:40:24;46.99;34.11;64.12;;
38366;Laerm;943;51.568;6.998;2023-06-04T04:42:55;52.53;35.87;72.04;;
38366;Laerm;943;51.568;6.998;2023-06-04T04:45:23;52.17;35.62;73.08;;
38366;Laerm;943;51.568;6.998;2023-06-04T04:47:54;48.60;35.09;70.04;;
38366;Laerm;943;51.568;6.998;2023-06-04T04:50:22;50.11;36.03;68.91;;
38366;Laerm;943;51.568;6.998;2023-06-04T04:52:50;50.10;35.89;69.09;;
38366;Laerm;943;51.568;6.998;2023-06-04T04:55:18;49.09;36.80;68.68;;
38366;Laerm;943;51.568;6.998;2023-06-04T04:57:49;50.76;36.08;70.85;;
38366;Laerm;943;51.568;6.998;2023-06-04T05:00:18;54.78;37.62;72.76;;
38366;Laerm;943;51.568;6.998;2023-06-04T05:02:50;51.14;35.99;69.56;;
38366;Laerm;943;51.568;6.998;2023-06-04T05:05:18;43.47;36.44;61.45;;
38366;Laerm;943;51.568;6.998;2023-06-04T05:07:47;47.35;36.34;64.06;;
38366;Laerm;943;51.568;6.998;2023-06-04T05:10:17;49.23;35.87;64.79;;
38366;Laerm;943;51.568;6.998;2023-06-04T05:12:58;46.28;36.40;62.03;;
38366;Laerm;943;51.568;6.998;2023-06-04T05:15:34;43.90;36.71;61.63;;
38366;Laerm;943;51.568;6.998;2023-06-04T05:18:03;41.87;36.72;57.10;;
38366;Laerm;943;51.568;6.998;2023-06-04T05:20:35;46.70;35.89;68.52;;
38366;Laerm;943;51.568;6.998;2023-06-04T05:23:09;49.70;36.61;70.50;;
38366;Laerm;943;51.568;6.998;2023-06-04T05:25:40;45.96;36.08;68.63;;
38366;Laerm;943;51.568;6.998;2023-06-04T05:28:09;45.04;35.50;68.58;;
38366;Laerm;943;51.568;6.998;2023-06-04T05:30:39;40.22;35.00;49.80;;
38366;Laerm;943;51.568;6.998;2023-06-04T05:33:11;42.01;35.64;55.89;;
38366;Laerm;943;51.568;6.998;2023-06-04T05:35:53;41.55;35.04;54.28;;
38366;Laerm;943;51.568;6.998;2023-06-04T05:38:28;43.83;35.81;58.02;;
38366;Laerm;943;51.568;6.998;2023-06-04T05:41:03;45.98;36.94;66.05;;
38366;Laerm;943;51.568;6.998;2023-06-04T05:43:34;45.65;36.49;62.65;;
38366;Laerm;943;51.568;6.998;2023-06-04T05:46:02;45.31;36.71;62.41;;
38366;Laerm;943;51.568;6.998;2023-06-04T05:48:33;44.74;35.47;60.66;;
38366;Laerm;943;51.568;6.998;2023-06-04T05:51:02;45.23;36.01;60.05;;
38366;Laerm;943;51.568;6.998;2023-06-04T05:53:32;42.54;35.29;59.12;;
38366;Laerm;943;51.568;6.998;2023-06-04T05:56:00;48.39;35.00;61.16;;
38366;Laerm;943;51.568;6.998;2023-06-04T05:58:29;50.95;35.05;64.19;;
38366;Laerm;943;51.568;6.998;2023-06-04T06:00:57;49.43;34.58;67.18;;
38366;Laerm;943;51.568;6.998;2023-06-04T06:03:25;51.08;35.01;69.71;;
38366;Laerm;943;51.568;6.998;2023-06-04T06:05:58;51.17;36.02;69.37;;
38366;Laerm;943;51.568;6.998;2023-06-04T06:08:28;43.95;35.49;60.81;;
38366;Laerm;943;51.568;6.998;2023-06-04T06:10:56;43.75;34.67;59.74;;
38366;Laerm;943;51.568;6.998;2023-06-04T06:13:24;56.59;34.39;72.66;;
38366;Laerm;943;51.568;6.998;2023-06-04T06:15:51;47.94;34.69;67.69;;
38366;Laerm;943;51.568;6.998;2023-06-04T06:18:20;48.42;35.55;66.68;;
38366;Laerm;943;51.568;6.998;2023-06-04T06:20:48;45.67;35.04;66.23;;
38366;Laerm;943;51.568;6.998;2023-06-04T06:23:15;48.31;35.01;77.75;;
38366;Laerm;943;51.568;6.998;2023-06-04T06:25:45;40.60;34.87;55.71;;
38366;Laerm;943;51.568;6.998;2023-06-04T06:28:21;40.39;35.16;55.76;;
38366;Laerm;943;51.568;6.998;2023-06-04T06:30:50;40.17;34.76;60.16;;
38366;Laerm;943;51.568;6.998;2023-06-04T06:33:18;41.77;36.24;64.03;;
38366;Laerm;943;51.568;6.998;2023-06-04T06:35:49;45.14;36.63;69.11;;
38366;Laerm;943;51.568;6.998;2023-06-04T06:38:17;57.28;35.22;81.41;;
38366;Laerm;943;51.568;6.998;2023-06-04T06:40:45;50.11;36.65;77.03;;
38366;Laerm;943;51.568;6.998;2023-06-04T06:43:13;44.91;37.12;59.31;;
38366;Laerm;943;51.568;6.998;2023-06-04T06:45:41;49.24;36.53;68.51;;
38366;Laerm;943;51.568;6.998;2023-06-04T06:48:08;51.04;36.72;68.43;;
38366;Laerm;943;51.568;6.998;2023-06-04T06:50:36;53.41;36.97;71.19;;
38366;Laerm;943;51.568;6.998;2023-06-04T06:53:04;53.18;37.80;70.92;;
38366;Laerm;943;51.568;6.998;2023-06-04T06:55:32;50.36;35.76;70.98;;
38366;Laerm;943;51.568;6.998;2023-06-04T06:57:59;50.14;36.20;70.40;;
38366;Laerm;943;51.568;6.998;2023-06-04T07:00:30;50.89;35.81;70.40;;
38366;Laerm;943;51.568;6.998;2023-06-04T07:02:58;50.54;35.50;72.74;;
38366;Laerm;943;51.568;6.998;2023-06-04T07:05:26;50.37;34.34;71.93;;
38366;Laerm;943;51.568;6.998;2023-06-04T07:07:54;51.21;34.72;71.03;;
38366;Laerm;943;51.568;6.998;2023-06-04T07:10:23;53.00;36.43;69.47;;
38366;Laerm;943;51.568;6.998;2023-06-04T07:12:52;52.96;36.27;71.07;;
38366;Laerm;943;51.568;6.998;2023-06-04T07:15:19;52.83;36.80;70.67;;
38366;Laerm;943;51.568;6.998;2023-06-04T07:17:47;46.33;38.31;63.38;;
38366;Laerm;943;51.568;6.998;2023-06-04T07:20:15;45.82;37.99;59.46;;
38366;Laerm;943;51.568;6.998;2023-06-04T07:22:43;42.82;36.73;64.06;;
38366;Laerm;943;51.568;6.998;2023-06-04T07:25:11;41.18;35.67;55.01;;
38366;Laerm;943;51.568;6.998;2023-06-04T07:27:39;41.66;36.07;63.18;;
38366;Laerm;943;51.568;6.998;2023-06-04T07:30:09;42.81;34.99;64.12;;
38366;Laerm;943;51.568;6.998;2023-06-04T07:32:37;49.71;36.32;65.99;;
38366;Laerm;943;51.568;6.998;2023-06-04T07:35:06;46.46;37.08;68.10;;
38366;Laerm;943;51.568;6.998;2023-06-04T07:37:34;46.40;38.60;67.13;;
38366;Laerm;943;51.568;6.998;2023-06-04T07:40:02;49.74;37.21;66.41;;
38366;Laerm;943;51.568;6.998;2023-06-04T07:42:31;50.37;38.09;65.18;;
38366;Laerm;943;51.568;6.998;2023-06-04T07:44:58;48.71;37.60;66.29;;
38366;Laerm;943;51.568;6.998;2023-06-04T07:47:26;44.62;38.01;63.56;;
38366;Laerm;943;51.568;6.998;2023-06-04T07:49:54;45.67;37.54;62.93;;
38366;Laerm;943;51.568;6.998;2023-06-04T07:52:30;40.77;36.74;56.18;;
38366;Laerm;943;51.568;6.998;2023-06-04T07:54:59;44.56;37.49;55.67;;
38366;Laerm;943;51.568;6.998;2023-06-04T07:57:29;51.85;36.75;68.29;;
38366;Laerm;943;51.568;6.998;2023-06-04T07:59:57;43.99;37.56;62.97;;
38366;Laerm;943;51.568;6.998;2023-06-04T08:02:25;45.68;37.07;62.16;;
38366;Laerm;943;51.568;6.998;2023-06-04T08:04:53;46.94;38.70;66.12;;
38366;Laerm;943;51.568;6.998;2023-06-04T08:07:21;47.14;37.99;64.16;;
38366;Laerm;943;51.568;6.998;2023-06-04T08:09:49;47.85;38.86;68.48;;
38366;Laerm;943;51.568;6.998;2023-06-04T08:12:17;48.84;38.70;72.84;;
38366;Laerm;943;51.568;6.998;2023-06-04T08:14:45;47.24;38.43;70.38;;
38366;Laerm;943;51.568;6.998;2023-06-04T08:17:13;46.44;38.59;62.13;;
38366;Laerm;943;51.568;6.998;2023-06-04T08:19:40;49.67;38.35;64.80;;
38366;Laerm;943;51.568;6.998;2023-06-04T08:22:08;49.10;39.07;68.43;;
38366;Laerm;943;51.568;6.998;2023-06-04T08:24:41;48.58;38.32;67.21;;
38366;Laerm;943;51.568;6.998;2023-06-04T08:27:10;48.30;39.99;65.84;;
38366;Laerm;943;51.568;6.998;2023-06-04T08:29:37;45.32;40.04;62.88;;
38366;Laerm;943;51.568;6.998;2023-06-04T08:32:07;45.37;39.24;61.42;;
38366;Laerm;943;51.568;6.998;2023-06-04T08:34:35;46.72;39.33;67.10;;
38366;Laerm;943;51.568;6.998;2023-06-04T08:37:03;46.94;37.48;67.01;;
38366;Laerm;943;51.568;6.998;2023-06-04T08:39:31;49.20;39.02;66.98;;
38366;Laerm;943;51.568;6.998;2023-06-04T08:42:06;48.19;37.95;67.07;;
38366;Laerm;943;51.568;6.998;2023-06-04T08:44:37;49.03;40.47;67.92;;
38366;Laerm;943;51.568;6.998;2023-06-04T08:47:08;51.32;41.02;69.84;;
38366;Laerm;943;51.568;6.998;2023-06-04T08:49:44;52.88;41.89;71.70;;
38366;Laerm;943;51.568;6.998;2023-06-04T08:52:14;50.89;40.21;69.01;;
38366;Laerm;943;51.568;6.998;2023-06-04T08:54:43;51.71;40.90;72.11;;
38366;Laerm;943;51.568;6.998;2023-06-04T08:57:11;50.57;38.92;68.51;;
38366;Laerm;943;51.568;6.998;2023-06-04T08:59:39;48.18;39.86;62.75;;
38366;Laerm;943;51.568;6.998;2023-06-04T09:02:08;52.13;39.85;70.63;;
38366;Laerm;943;51.568;6.998;2023-06-04T09:04:39;56.45;40.71;71.75;;
38366;Laerm;943;51.568;6.998;2023-06-04T09:07:10;54.14;40.15;81.47;;
38366;Laerm;943;51.568;6.998;2023-06-04T09:09:42;48.92;39.41;67.09;;
38366;Laerm;943;51.568;6.998;2023-06-04T09:12:23;48.05;39.54;68.86;;
38366;Laerm;943;51.568;6.998;2023-06-04T09:14:51;45.22;37.89;64.97;;
38366;Laerm;943;51.568;6.998;2023-06-04T09:17:25;52.91;40.51;75.24;;
38366;Laerm;943;51.568;6.998;2023-06-04T09:19:55;50.50;39.57;73.23;;
38366;Laerm;943;51.568;6.998;2023-06-04T09:22:36;45.80;38.41;59.17;;
38366;Laerm;943;51.568;6.998;2023-06-04T09:25:21;46.28;39.29;70.61;;
38366;Laerm;943;51.568;6.998;2023-06-04T09:27:49;47.67;38.26;69.95;;
38366;Laerm;943;51.568;6.998;2023-06-04T09:30:17;43.60;38.04;61.71;;
38366;Laerm;943;51.568;6.998;2023-06-04T09:32:45;49.36;41.11;68.77;;
38366;Laerm;943;51.568;6.998;2023-06-04T09:35:19;45.87;39.62;75.24;;
38366;Laerm;943;51.568;6.998;2023-06-04T09:37:56;44.16;39.27;60.59;;
38366;Laerm;943;51.568;6.998;2023-06-04T09:40:37;44.43;38.16;65.89;;
38366;Laerm;943;51.568;6.998;2023-06-04T09:43:06;48.48;39.78;71.69;;
38366;Laerm;943;51.568;6.998;2023-06-04T09:45:35;50.51;39.70;78.04;;
38366;Laerm;943;51.568;6.998;2023-06-04T09:48:04;44.01;38.78;60.68;;
38366;Laerm;943;51.568;6.998;2023-06-04T09:50:36;51.00;39.22;71.92;;
38366;Laerm;943;51.568;6.998;2023-06-04T09:53:19;48.08;39.88;63.22;;
38366;Laerm;943;51.568;6.998;2023-06-04T09:56:02;47.85;39.21;72.78;;
38366;Laerm;943;51.568;6.998;2023-06-04T09:58:32;45.09;40.07;60.23;;
38366;Laerm;943;51.568;6.998;2023-06-04T10:01:05;46.79;38.48;64.70;;
38366;Laerm;943;51.568;6.998;2023-06-04T10:03:42;52.28;41.51;75.67;;
38366;Laerm;943;51.568;6.998;2023-06-04T10:06:16;50.72;40.31;71.43;;
38366;Laerm;943;51.568;6.998;2023-06-04T10:08:48;48.00;40.12;68.19;;
38366;Laerm;943;51.568;6.998;2023-06-04T10:11:26;57.57;40.71;83.15;;
38366;Laerm;943;51.568;6.998;2023-06-04T10:14:43;59.38;42.95;85.46;;
38366;Laerm;943;51.568;6.998;2023-06-04T10:17:15;49.18;41.40;75.18;;
38366;Laerm;943;51.568;6.998;2023-06-04T10:19:45;47.31;40.86;69.27;;
38366;Laerm;943;51.568;6.998;2023-06-04T10:22:14;46.10;40.64;56.98;;
38366;Laerm;943;51.568;6.998;2023-06-04T10:24:44;47.89;40.07;72.37;;
38366;Laerm;943;51.568;6.998;2023-06-04T10:27:12;46.41;38.05;68.75;;
38366;Laerm;943;51.568;6.998;2023-06-04T10:29:45;51.85;39.23;74.68;;
38366;Laerm;943;51.568;6.998;2023-06-04T10:32:14;48.09;38.44;72.45;;
38366;Laerm;943;51.568;6.998;2023-06-04T10:34:43;46.43;38.00;74.96;;
38366;Laerm;943;51.568;6.998;2023-06-04T10:37:26;51.35;41.07;76.57;;
38366;Laerm;943;51.568;6.998;2023-06-04T10:39:58;45.76;39.54;60.23;;
38366;Laerm;943;51.568;6.998;2023-06-04T10:42:38;47.45;38.03;67.57;;
38366;Laerm;943;51.568;6.998;2023-06-04T10:45:10;46.93;38.41;61.55;;
38366;Laerm;943;51.568;6.998;2023-06-04T10:47:40;45.24;38.95;61.42;;
38366;Laerm;943;51.568;6.998;2023-06-04T10:50:14;46.28;40.42;68.26;;
38366;Laerm;943;51.568;6.998;2023-06-04T10:52:55;47.11;38.16;62.03;;
38366;Laerm;943;51.568;6.998;2023-06-04T10:55:25;48.58;38.85;68.89;;
38366;Laerm;943;51.568;6.998;2023-06-04T10:57:58;51.09;41.43;71.37;;
38366;Laerm;943;51.568;6.998;2023-06-04T11:00:45;49.90;41.33;76.00;;
38366;Laerm;943;51.568;6.998;2023-06-04T11:03:15;46.83;40.49;69.95;;
38366;Laerm;943;51.568;6.998;2023-06-04T11:05:47;48.57;39.88;66.91;;
38366;Laerm;943;51.568;6.998;2023-06-04T11:08:28;46.81;37.77;60.69;;
38366;Laerm;943;51.568;6.998;2023-06-04T11:10:56;67.89;39.83;90.83;;
38366;Laerm;943;51.568;6.998;2023-06-04T11:13:25;58.85;41.42;84.50;;
38366;Laerm;943;51.568;6.998;2023-06-04T11:15:53;46.94;40.82;63.45;;
38366;Laerm;943;51.568;6.998;2023-06-04T11:18:23;49.13;41.95;72.52;;
38366;Laerm;943;51.568;6.998;2023-06-04T11:21:00;53.14;39.25;80.05;;
38366;Laerm;943;51.568;6.998;2023-06-04T11:23:29;44.47;39.59;53.19;;
38366;Laerm;943;51.568;6.998;2023-06-04T11:25:58;46.56;39.76;68.79;;
38366;Laerm;943;51.568;6.998;2023-06-04T11:28:27;46.09;39.51;70.74;;
38366;Laerm;943;51.568;6.998;2023-06-04T11:31:00;45.93;38.72;61.91;;
38366;Laerm;943;51.568;6.998;2023-06-04T11:33:45;47.98;39.97;65.31;;
38366;Laerm;943;51.568;6.998;2023-06-04T11:36:29;54.00;40.65;75.87;;
38366;Laerm;943;51.568;6.998;2023-06-04T11:39:02;56.11;41.55;82.03;;
38366;Laerm;943;51.568;6.998;2023-06-04T11:41:33;52.41;40.97;77.10;;
38366;Laerm;943;51.568;6.998;2023-06-04T11:44:06;50.52;41.66;76.81;;
38366;Laerm;943;51.568;6.998;2023-06-04T11:46:44;50.28;41.75;69.26;;
38366;Laerm;943;51.568;6.998;2023-06-04T11:49:18;52.68;40.55;77.92;;
38366;Laerm;943;51.568;6.998;2023-06-04T11:51:52;50.32;39.77;73.62;;
38366;Laerm;943;51.568;6.998;2023-06-04T11:54:22;49.78;40.45;68.87;;
38366;Laerm;943;51.568;6.998;2023-06-04T11:56:51;49.91;40.08;72.87;;
38366;Laerm;943;51.568;6.998;2023-06-04T11:59:20;53.28;38.91;71.09;;
38366;Laerm;943;51.568;6.998;2023-06-04T12:01:49;48.63;41.45;67.05;;
38366;Laerm;943;51.568;6.998;2023-06-04T12:04:19;50.66;41.40;71.71;;
38366;Laerm;943;51.568;6.998;2023-06-04T12:07:00;47.27;40.53;62.88;;
38366;Laerm;943;51.568;6.998;2023-06-04T12:09:32;46.05;41.00;59.13;;
38366;Laerm;943;51.568;6.998;2023-06-04T12:12:11;47.96;40.71;70.95;;
38366;Laerm;943;51.568;6.998;2023-06-04T12:14:39;44.25;39.66;55.01;;
38366;Laerm;943;51.568;6.998;2023-06-04T12:17:09;44.65;40.06;53.98;;
38366;Laerm;943;51.568;6.998;2023-06-04T12:19:51;47.21;41.72;65.94;;
38366;Laerm;943;51.568;6.998;2023-06-04T12:22:19;51.04;42.45;72.96;;
38366;Laerm;943;51.568;6.998;2023-06-04T12:24:55;53.70;39.43;68.89;;
38366;Laerm;943;51.568;6.998;2023-06-04T12:27:28;41.99;37.57;55.60;;
38366;Laerm;943;51.568;6.998;2023-06-04T12:30:03;44.61;39.96;56.29;;
38366;Laerm;943;51.568;6.998;2023-06-04T12:32:36;49.08;40.38;71.78;;
38366;Laerm;943;51.568;6.998;2023-06-04T12:35:04;50.20;40.32;71.76;;
38366;Laerm;943;51.568;6.998;2023-06-04T12:37:32;55.14;39.56;80.92;;
38366;Laerm;943;51.568;6.998;2023-06-04T12:40:00;45.96;40.50;62.28;;
38366;Laerm;943;51.568;6.998;2023-06-04T12:42:28;44.31;39.52;61.68;;
38366;Laerm;943;51.568;6.998;2023-06-04T12:44:56;45.66;41.13;58.30;;
38366;Laerm;943;51.568;6.998;2023-06-04T12:47:24;54.12;41.12;71.40;;
38366;Laerm;943;51.568;6.998;2023-06-04T12:49:52;44.90;41.25;58.51;;
38366;Laerm;943;51.568;6.998;2023-06-04T12:52:20;46.09;41.27;61.20;;
38366;Laerm;943;51.568;6.998;2023-06-04T12:54:48;48.11;40.08;72.10;;
38366;Laerm;943;51.568;6.998;2023-06-04T12:57:16;50.24;39.13;74.65;;
38366;Laerm;943;51.568;6.998;2023-06-04T12:59:44;44.65;40.27;62.03;;
38366;Laerm;943;51.568;6.998;2023-06-04T13:02:11;47.34;39.51;64.46;;
38366;Laerm;943;51.568;6.998;2023-06-04T13:04:40;43.58;39.15;59.89;;
38366;Laerm;943;51.568;6.998;2023-06-04T13:07:10;45.31;39.68;59.92;;
38366;Laerm;943;51.568;6.998;2023-06-04T13:09:38;46.21;39.79;65.53;;
38366;Laerm;943;51.568;6.998;2023-06-04T13:12:06;46.97;40.54;71.49;;
38366;Laerm;943;51.568;6.998;2023-06-04T13:14:36;50.59;39.56;56.17;;
38366;Laerm;943;51.568;6.998;2023-06-04T13:17:04;52.92;49.83;72.73;;
38366;Laerm;943;51.568;6.998;2023-06-04T13:19:48;53.56;49.37;75.42;;
38366;Laerm;943;51.568;6.998;2023-06-04T13:22:15;51.20;48.66;57.79;;
38366;Laerm;943;51.568;6.998;2023-06-04T13:24:43;51.33;48.84;59.74;;
38366;Laerm;943;51.568;6.998;2023-06-04T13:27:11;51.85;48.76;68.28;;
38366;Laerm;943;51.568;6.998;2023-06-04T13:29:38;52.91;49.54;67.36;;
38366;Laerm;943;51.568;6.998;2023-06-04T13:32:10;52.25;49.35;77.47;;
38366;Laerm;943;51.568;6.998;2023-06-04T13:34:38;52.49;49.07;66.38;;
38366;Laerm;943;51.568;6.998;2023-06-04T13:37:06;51.58;48.78;57.76;;
38366;Laerm;943;51.568;6.998;2023-06-04T13:39:34;52.92;48.81;72.70;;
38366;Laerm;943;51.568;6.998;2023-06-04T13:42:02;48.19;40.82;55.26;;
38366;Laerm;943;51.568;6.998;2023-06-04T13:44:29;46.85;40.93;65.51;;
38366;Laerm;943;51.568;6.998;2023-06-04T13:46:59;49.29;40.65;66.06;;
38366;Laerm;943;51.568;6.998;2023-06-04T13:49:28;52.16;40.51;71.42;;
38366;Laerm;943;51.568;6.998;2023-06-04T13:51:56;50.23;39.75;64.36;;
38366;Laerm;943;51.568;6.998;2023-06-04T13:54:24;50.66;38.63;67.76;;
38366;Laerm;943;51.568;6.998;2023-06-04T13:56:52;49.74;37.80;66.37;;
38366;Laerm;943;51.568;6.998;2023-06-04T13:59:20;51.77;39.02;66.75;;
38366;Laerm;943;51.568;6.998;2023-06-04T14:01:48;49.14;39.12;66.20;;
38366;Laerm;943;51.568;6.998;2023-06-04T14:04:16;50.07;38.98;69.68;;
38366;Laerm;943;51.568;6.998;2023-06-04T14:06:44;48.77;41.53;72.03;;
38366;Laerm;943;51.568;6.998;2023-06-04T14:09:11;47.72;39.10;71.19;;
38366;Laerm;943;51.568;6.998;2023-06-04T14:11:39;45.20;38.86;60.36;;
38366;Laerm;943;51.568;6.998;2023-06-04T14:14:08;50.04;41.11;66.11;;
38366;Laerm;943;51.568;6.998;2023-06-04T14:16:38;46.57;39.69;63.68;;
38366;Laerm;943;51.568;6.998;2023-06-04T14:19:06;55.47;40.84;79.88;;
38366;Laerm;943;51.568;6.998;2023-06-04T14:21:34;45.96;38.67;60.54;;
38366;Laerm;943;51.568;6.998;2023-06-04T14:24:04;45.56;39.11;66.14;;
38366;Laerm;943;51.568;6.998;2023-06-04T14:26:32;45.91;39.05;60.94;;